Franklin Island, Australia

2:21 AM ACDT on February 23, 2017 (GMT +1030)
Encounter Bay | | Change Station

Elev 50 ft 35.56 °S, 138.60 °E | Updated 23 seconds ago

Clear
Clear
63.3 °F
Feels Like 63.3 °F
N
1.3
Wind Variable Wind from West
Gusts 4.0 mph

Today
High -- | Low -- °F
--% Chance of Precip.
Yesterday
High -- | Low -- °F
Precip. -- in
Pressure 30.01 in
Visibility 6.2 miles
Clouds Mostly Cloudy 2600 ft
Dew Point 56 °F
Humidity 76%
Rainfall 0.00 in
Snow Depth Not available.
6:56 AM 8:01 PM
Waning Crescent, 16% visible
METAR YPAD 221530Z 25013KT 9999 BKN026 19/13 Q1016 NOSIG
Pressure 30.01 in
Visibility 6.2 miles
Clouds Mostly Cloudy 2600 ft
Dew Point 56 °F
Humidity 76%
Rainfall 0.00 in
Snow Depth Not available.
6:56 AM 8:01 PM
Waning Crescent, 16% visible
METAR YPAD 221530Z 25013KT 9999 BKN026 19/13 Q1016 NOSIG

Get Your Daily Forecast Email!

Thanks for signing up!

Be on the lookout for a verification email in your inbox.

You'll start receiving the daily forecast at 8 AM.

×

10-Day Weather Forecast

×

Almanac

Astronomy

Feb. 23, 2017 Rise Set
Actual Time
Civil Twilight
Nautical Twilight
Astronomical Twilight
Moon
Length of Visible Light
Length of Day
Tomorrow will be .
, % of the Moon is Illuminated

Today's Extremes

Country Highs Country Lows

Community

WunderPhotos

Upload Photos

1,962,540 photos uploaded!

WunderBlog® & News

Nearby

Air Quality

  Air Quality AQ Index Pollutant
Not available.

Snow Depth

Station Depth Elevation

Earthquake Activity

City Distance Mag. Time & Date
Minimum magnitude displayed is 2.5.

Coastal Water Temperatures

Place Temperature

Stations

Nearby Weather Stations

Station Location Temp. Windchill Dew Point Humidity Wind Precip. Elev Updated Type